Time;durP1;ratioP1;P1;durP2;ratioP2;P2;SDS_P1;SDS_P2;PMS_P1;PMS_P2;Temp;Humidity;BMP_temperature;BMP_pressure;BME280_temperature;BME280_humidity;BME280_pressure;Samples;Min_cycle;Max_cycle;Signal;HPM_P1;HPM_P2
2021/07/13 00:01:21;;;;;;;2.30;2.10;;;;;;;20.91;62.21;95898.63;4996469;28;20061;-78
2021/07/13 00:03:49;;;;;;;2.28;1.73;;;;;;;20.89;62.47;95906.84;4996462;28;20468;-77
2021/07/13 00:06:16;;;;;;;4.00;2.50;;;;;;;20.85;63.08;95905.78;4995737;28;20060;-77
2021/07/13 00:08:44;;;;;;;2.33;2.10;;;;;;;20.86;64.41;95917.16;4996338;28;20475;-77
2021/07/13 00:11:11;;;;;;;2.67;2.30;;;;;;;20.92;65.54;95916.91;4995835;28;20050;-77
2021/07/13 00:13:39;;;;;;;3.25;2.33;;;;;;;20.93;65.05;95913.22;4996100;28;20047;-78
2021/07/13 00:16:08;;;;;;;2.75;2.47;;;;;;;20.93;64.79;95918.50;4996098;28;20054;-77
2021/07/13 00:18:37;;;;;;;2.63;2.00;;;;;;;20.97;66.52;95924.88;4995543;28;20074;-76
2021/07/13 00:21:06;;;;;;;1.83;1.73;;;;;;;21.03;66.77;95925.66;4995643;28;20055;-76
2021/07/13 00:23:34;;;;;;;3.95;2.40;;;;;;;21.07;66.19;95918.00;4998078;28;20054;-78
2021/07/13 00:26:02;;;;;;;3.95;1.95;;;;;;;21.09;65.72;95911.34;4998584;28;20078;-81
2021/07/13 00:28:29;;;;;;;2.72;2.17;;;;;;;21.06;64.06;95919.84;4998831;28;20046;-85
2021/07/13 00:30:57;;;;;;;2.95;2.03;;;;;;;20.98;63.77;95915.84;4998877;28;20050;-79
2021/07/13 00:33:26;;;;;;;2.20;2.00;;;;;;;20.93;64.00;95921.16;4997924;28;20085;-77
2021/07/13 00:35:53;;;;;;;6.20;2.00;;;;;;;20.90;64.36;95928.84;4998241;28;20054;-77
2021/07/13 00:38:21;;;;;;;2.13;2.03;;;;;;;20.91;65.53;95931.25;5001237;28;20054;-78
2021/07/13 00:40:48;;;;;;;3.15;2.05;;;;;;;20.93;65.62;95931.78;5001667;28;20050;-78
2021/07/13 00:43:17;;;;;;;2.30;1.98;;;;;;;20.95;65.16;95929.66;5001973;28;20054;-77
2021/07/13 00:45:44;;;;;;;2.75;1.70;;;;;;;20.94;64.49;95930.69;5003605;28;20057;-80
2021/07/13 00:48:12;;;;;;;4.47;2.10;;;;;;;20.91;63.91;95943.69;5004887;28;20168;-78
2021/07/13 00:50:44;;;;;;;5.00;2.03;;;;;;;20.83;63.95;95939.69;5004295;28;20105;-78
2021/07/13 00:53:11;;;;;;;5.53;2.30;;;;;;;20.72;63.86;95938.09;5004526;28;20046;-78
2021/07/13 00:55:39;;;;;;;2.05;1.80;;;;;;;20.67;64.18;95935.44;5003536;28;20512;-79
2021/07/13 00:58:06;;;;;;;2.42;2.15;;;;;;;20.61;64.28;95931.97;5004944;28;20392;-77
2021/07/13 01:00:34;;;;;;;2.83;2.20;;;;;;;20.57;64.53;95921.13;5004920;28;20101;-81
2021/07/13 01:03:04;;;;;;;3.10;2.00;;;;;;;20.52;64.96;95907.81;5005491;28;20050;-78
2021/07/13 01:05:34;;;;;;;3.25;2.15;;;;;;;20.50;65.09;95917.09;5004496;28;20049;-78
2021/07/13 01:08:13;;;;;;;3.67;1.92;;;;;;;20.46;65.58;95916.81;5002963;28;20050;-79
2021/07/13 01:10:46;;;;;;;3.25;2.33;;;;;;;20.45;65.94;95917.88;5004041;28;20515;-76
2021/07/13 01:13:24;;;;;;;4.00;2.35;;;;;;;20.41;66.14;95922.09;5003198;28;20050;-77
2021/07/13 01:16:00;;;;;;;2.90;2.10;;;;;;;20.39;66.20;95926.84;5000966;28;20047;-79
2021/07/13 01:18:31;;;;;;;3.15;2.15;;;;;;;20.42;67.95;95928.19;5000337;28;20062;-77
2021/07/13 01:21:22;;;;;;;4.00;2.72;;;;;;;20.48;67.61;95917.34;5001560;28;20054;-77
2021/07/13 01:24:10;;;;;;;3.33;2.63;;;;;;;20.49;67.67;95911.00;4999692;28;20057;-78
2021/07/13 01:26:49;;;;;;;2.42;2.10;;;;;;;20.48;67.49;95912.03;5000290;28;20050;-77
2021/07/13 01:29:19;;;;;;;3.80;2.13;;;;;;;20.47;67.27;95907.81;5000314;28;20050;-76
2021/07/13 01:31:49;;;;;;;2.35;2.15;;;;;;;20.45;67.05;95912.56;5001815;28;20057;-75
2021/07/13 01:34:21;;;;;;;4.32;2.40;;;;;;;20.45;67.00;95923.16;5000897;28;20105;-77
2021/07/13 01:36:54;;;;;;;3.42;2.30;;;;;;;20.41;67.21;95927.41;5000760;28;20145;-78
2021/07/13 01:39:23;;;;;;;3.63;2.55;;;;;;;20.37;66.92;95948.31;5000667;28;20046;-80
2021/07/13 01:41:53;;;;;;;4.30;2.30;;;;;;;20.34;67.32;95938.22;5000835;28;20435;-75
2021/07/13 01:44:25;;;;;;;3.83;2.40;;;;;;;20.37;68.94;95943.00;4999552;28;20051;-77
2021/07/13 01:46:53;;;;;;;4.93;3.05;;;;;;;20.41;69.25;95931.91;5000557;28;20046;-78
2021/07/13 01:49:25;;;;;;;4.50;3.03;;;;;;;20.48;70.07;95932.44;4999889;28;20046;-77
2021/07/13 01:51:54;;;;;;;3.97;3.65;;;;;;;20.51;70.21;95937.22;5000656;28;20050;-77
2021/07/13 01:54:25;;;;;;;4.47;3.15;;;;;;;20.54;70.76;95939.34;5000279;28;20050;-77
2021/07/13 01:56:55;;;;;;;3.35;2.90;;;;;;;20.57;71.11;95923.78;5000541;28;20177;-78
2021/07/13 01:59:25;;;;;;;3.83;3.13;;;;;;;20.61;71.39;95925.88;5000731;28;20053;-76
2021/07/13 02:01:57;;;;;;;4.25;3.72;;;;;;;20.65;71.21;95916.34;4999774;28;20467;-77
2021/07/13 02:04:28;;;;;;;4.73;3.30;;;;;;;20.65;71.25;95913.72;4999057;28;20527;-76
2021/07/13 02:06:57;;;;;;;3.25;2.97;;;;;;;20.66;71.33;95908.16;4999409;28;20631;-76
2021/07/13 02:09:25;;;;;;;4.30;3.10;;;;;;;20.68;71.71;95899.94;4998408;28;20050;-79
2021/07/13 02:11:54;;;;;;;5.93;3.70;;;;;;;20.69;71.74;95904.19;4998830;28;20562;-79
2021/07/13 02:14:21;;;;;;;6.45;3.60;;;;;;;20.64;71.50;95918.22;4998695;28;20109;-77
2021/07/13 02:16:52;;;;;;;4.15;3.40;;;;;;;20.65;72.48;95924.31;5000422;28;20142;-78
2021/07/13 02:19:21;;;;;;;4.50;3.10;;;;;;;20.67;72.25;95920.34;5000278;28;20046;-77
2021/07/13 02:21:49;;;;;;;6.68;3.80;;;;;;;20.69;71.90;95906.84;5000170;28;20133;-77
2021/07/13 02:24:18;;;;;;;3.25;2.95;;;;;;;20.70;72.06;95885.34;4999514;28;20062;-78
2021/07/13 02:26:51;;;;;;;3.72;3.42;;;;;;;20.72;72.28;95893.03;4999738;28;20061;-78
2021/07/13 02:29:21;;;;;;;3.72;3.42;;;;;;;20.72;72.28;95895.69;4998064;28;20420;-78
2021/07/13 02:31:56;;;;;;;3.88;3.28;;;;;;;20.72;71.92;95906.28;4998054;28;20069;-77
2021/07/13 02:34:28;;;;;;;3.28;3.00;;;;;;;20.73;72.24;95897.31;4997639;28;20133;-82
2021/07/13 02:37:00;;;;;;;4.57;3.92;;;;;;;20.73;71.93;95894.66;4997704;28;20061;-77
2021/07/13 02:39:28;;;;;;;4.82;3.53;;;;;;;20.73;72.09;95890.13;4997111;28;20058;-77
2021/07/13 02:41:57;;;;;;;6.50;3.45;;;;;;;20.73;72.07;95894.66;4998343;28;20146;-76
2021/07/13 02:44:29;;;;;;;3.58;3.20;;;;;;;20.70;71.94;95906.53;4997269;28;20046;-77
2021/07/13 02:46:58;;;;;;;;;;;;;;;20.69;71.36;95917.44;4997567;28;20054;-76
2021/07/13 02:49:30;;;;;;;6.72;4.63;;;;;;;20.60;71.31;95935.69;4997353;28;19928;-78
2021/07/13 02:52:03;;;;;;;4.97;4.40;;;;;;;20.54;71.97;95931.41;4996249;28;20054;-77
2021/07/13 02:54:31;;;;;;;5.90;5.00;;;;;;;20.53;72.38;95941.22;4996632;28;20058;-77
2021/07/13 02:57:01;;;;;;;5.43;4.78;;;;;;;20.52;72.64;95939.59;4996743;28;20427;-77
2021/07/13 02:59:29;;;;;;;5.35;4.78;;;;;;;20.49;72.14;95940.13;4996626;28;20065;-76
2021/07/13 03:02:00;;;;;;;5.72;4.70;;;;;;;20.49;72.50;95945.44;4999121;28;20065;-77
2021/07/13 03:04:29;;;;;;;6.85;5.15;;;;;;;20.46;72.53;95940.66;4997568;28;20054;-76
2021/07/13 03:06:58;;;;;;;5.85;5.20;;;;;;;20.46;72.43;95948.59;4998519;28;20061;-75
2021/07/13 03:09:26;;;;;;;6.60;4.68;;;;;;;20.47;72.66;95957.34;4998157;28;20551;-77
2021/07/13 03:11:54;;;;;;;5.25;4.75;;;;;;;20.45;72.57;95965.56;4998265;28;20050;-78
2021/07/13 03:14:23;;;;;;;6.07;4.93;;;;;;;20.45;72.92;95949.66;4997863;28;20058;-76
2021/07/13 03:16:51;;;;;;;6.72;5.03;;;;;;;20.42;72.57;95950.16;4997398;28;20050;-76
2021/07/13 03:19:20;;;;;;;5.10;4.60;;;;;;;20.39;71.96;95950.69;4996848;28;20046;-78
2021/07/13 03:21:51;;;;;;;5.93;5.07;;;;;;;20.36;72.11;95948.56;4996626;28;20054;-76
2021/07/13 03:24:22;;;;;;;5.65;3.65;;;;;;;20.37;72.29;95944.84;4995821;28;20048;-76
2021/07/13 03:26:50;;;;;;;5.80;4.32;;;;;;;20.38;72.40;95938.53;4996141;28;20058;-77
2021/07/13 03:29:18;;;;;;;4.55;4.13;;;;;;;20.38;72.16;95927.94;4995168;28;20054;-76
2021/07/13 03:31:47;;;;;;;5.88;4.68;;;;;;;20.36;72.46;95922.88;4997684;28;20050;-78
2021/07/13 03:34:17;;;;;;;6.20;3.83;;;;;;;20.36;72.30;95920.22;4997738;28;20559;-78
2021/07/13 03:36:47;;;;;;;4.25;3.85;;;;;;;20.35;72.33;95917.84;4998119;28;20093;-78
2021/07/13 03:39:16;;;;;;;7.47;3.88;;;;;;;20.37;72.79;95915.72;4998207;28;20078;-77
2021/07/13 03:41:44;;;;;;;5.78;3.70;;;;;;;20.37;72.23;95902.47;5000409;28;20073;-80
2021/07/13 03:44:14;;;;;;;3.97;3.67;;;;;;;20.37;72.40;95889.22;4998676;28;20054;-78
2021/07/13 03:46:42;;;;;;;3.90;3.53;;;;;;;20.38;72.08;95878.38;4999599;28;20508;-76
2021/07/13 03:49:10;;;;;;;4.88;4.47;;;;;;;20.37;71.91;95862.75;4999825;28;20082;-76
2021/07/13 03:51:41;;;;;;;4.43;3.83;;;;;;;20.35;71.92;95856.91;4999604;28;20230;-78
2021/07/13 03:54:11;;;;;;;6.40;3.97;;;;;;;20.33;72.46;95856.38;4998811;28;20082;-77
2021/07/13 03:56:40;;;;;;;5.03;3.58;;;;;;;20.33;72.08;95843.13;5000064;28;20078;-78
2021/07/13 03:59:08;;;;;;;4.82;4.10;;;;;;;20.33;71.86;95824.59;5000218;28;20042;-78
2021/07/13 04:01:36;;;;;;;4.97;3.72;;;;;;;20.31;71.72;95821.41;4999556;28;20057;-79
2021/07/13 04:04:05;;;;;;;3.95;3.65;;;;;;;20.25;71.56;95827.78;5000036;28;20141;-76
2021/07/13 04:06:33;;;;;;;3.95;3.58;;;;;;;20.22;72.23;95833.59;4999192;28;20508;-79
2021/07/13 04:09:02;;;;;;;4.28;3.60;;;;;;;20.21;72.49;95832.00;4998282;28;20559;-78
2021/07/13 04:11:31;;;;;;;3.67;3.33;;;;;;;20.21;72.83;95845.25;4999643;28;20436;-78
2021/07/13 04:13:58;;;;;;;3.42;3.13;;;;;;;20.22;72.98;95850.25;4999941;28;20065;-77
2021/07/13 04:16:26;;;;;;;5.60;3.95;;;;;;;20.25;72.86;95838.38;4999569;28;20054;-76
2021/07/13 04:18:54;;;;;;;4.97;4.18;;;;;;;20.24;72.27;95836.78;5000106;28;20046;-79
2021/07/13 04:21:21;;;;;;;5.40;3.83;;;;;;;20.21;72.76;95834.66;5000023;28;20096;-76
2021/07/13 04:23:49;;;;;;;5.28;3.80;;;;;;;20.21;72.69;95838.09;5000236;28;20050;-79
2021/07/13 04:26:16;;;;;;;3.92;3.60;;;;;;;20.25;72.96;95844.47;4999780;28;20129;-76
2021/07/13 04:28:46;;;;;;;4.30;3.55;;;;;;;20.26;73.03;95843.38;4998674;28;20051;-77
2021/07/13 04:31:14;;;;;;;4.30;3.90;;;;;;;20.27;72.67;95854.78;5000960;28;20050;-78
2021/07/13 04:33:42;;;;;;;5.68;3.10;;;;;;;20.29;72.91;95845.53;4999940;28;20058;-79
2021/07/13 04:36:09;;;;;;;5.18;3.90;;;;;;;20.30;72.15;95827.78;4999025;28;20082;-78
2021/07/13 04:38:37;;;;;;;3.88;3.42;;;;;;;20.29;72.56;95827.00;4998399;28;20142;-80
2021/07/13 04:41:04;;;;;;;4.72;3.63;;;;;;;20.33;72.80;95827.25;4997841;28;20108;-75
2021/07/13 04:43:32;;;;;;;8.25;6.38;;;;;;;20.34;72.55;95826.19;4997359;28;20046;-78
2021/07/13 04:46:01;;;;;;;41.00;25.30;;;;;;;20.34;72.42;95839.44;4997880;28;20057;-78
2021/07/13 04:48:28;;;;;;;17.10;12.00;;;;;;;20.31;72.29;95838.13;4998096;28;20074;-79
2021/07/13 04:50:56;;;;;;;9.38;6.55;;;;;;;20.30;72.65;95841.81;4998817;28;20046;-77
2021/07/13 04:53:23;;;;;;;4.35;3.53;;;;;;;20.30;72.63;95841.03;4999141;28;20073;-79
2021/07/13 04:55:51;;;;;;;13.20;4.43;;;;;;;20.32;72.78;95830.97;4999134;28;20055;-76
2021/07/13 04:58:18;;;;;;;9.48;4.15;;;;;;;20.32;72.83;95828.31;4998016;28;20050;-79
2021/07/13 05:00:46;;;;;;;4.72;3.80;;;;;;;20.32;72.74;95802.63;4996502;28;20043;-79
2021/07/13 05:03:15;;;;;;;5.20;3.60;;;;;;;20.28;72.07;95812.16;4996298;28;20050;-77
2021/07/13 05:05:42;;;;;;;4.50;3.63;;;;;;;20.22;72.48;95818.47;4996971;28;20081;-76
2021/07/13 05:08:10;;;;;;;3.33;3.00;;;;;;;20.15;72.41;95820.59;4998251;28;20602;-78
2021/07/13 05:10:37;;;;;;;4.05;3.05;;;;;;;20.11;72.89;95817.66;4997935;28;20049;-77
2021/07/13 05:13:09;;;;;;;3.80;3.35;;;;;;;20.12;73.27;95815.84;4997313;28;20061;-78
2021/07/13 05:15:39;;;;;;;8.20;3.80;;;;;;;20.16;73.23;95824.84;4996486;28;20066;-76
2021/07/13 05:18:07;;;;;;;9.40;3.40;;;;;;;20.16;72.48;95827.50;4999482;28;20062;-78
2021/07/13 05:20:37;;;;;;;3.47;3.17;;;;;;;20.16;72.92;95816.91;4998972;28;20050;-76
2021/07/13 05:23:07;;;;;;;4.63;3.78;;;;;;;20.15;72.68;95810.00;4998083;28;20054;-75
2021/07/13 05:25:35;;;;;;;4.65;3.47;;;;;;;20.16;72.93;95815.06;5000974;28;20559;-77
2021/07/13 05:28:04;;;;;;;5.20;3.88;;;;;;;20.19;72.67;95820.88;5000091;28;20050;-78
2021/07/13 05:30:32;;;;;;;4.40;3.00;;;;;;;20.19;73.10;95824.31;5000597;28;20047;-79
2021/07/13 05:32:59;;;;;;;4.70;3.45;;;;;;;20.20;72.74;95817.94;5000973;28;20061;-77
2021/07/13 05:35:27;;;;;;;4.20;3.60;;;;;;;20.23;73.10;95822.75;5002444;28;20070;-77
2021/07/13 05:37:56;;;;;;;3.45;3.17;;;;;;;20.26;73.57;95818.75;5000010;28;20420;-77
2021/07/13 05:40:23;;;;;;;3.83;3.05;;;;;;;20.27;72.65;95818.50;4998708;28;20074;-79
2021/07/13 05:42:51;;;;;;;3.50;3.10;;;;;;;20.30;73.13;95814.53;4998910;28;20061;-77
2021/07/13 05:45:19;;;;;;;3.25;2.95;;;;;;;20.34;72.88;95812.97;4999157;28;20496;-78
2021/07/13 05:47:46;;;;;;;4.28;3.38;;;;;;;20.35;72.57;95811.88;5000442;28;20077;-82
2021/07/13 05:50:14;;;;;;;5.10;3.90;;;;;;;20.35;71.94;95809.25;4999800;28;20511;-79
2021/07/13 05:52:42;;;;;;;3.83;3.53;;;;;;;20.34;71.82;95810.31;4999477;28;20077;-78
2021/07/13 05:55:12;;;;;;;4.15;3.85;;;;;;;20.33;71.51;95808.72;4999643;28;20511;-79
2021/07/13 05:57:40;;;;;;;5.22;4.07;;;;;;;20.33;71.54;95798.94;4991611;28;20563;-77
2021/07/13 06:00:09;;;;;;;4.10;3.70;;;;;;;20.35;71.41;95796.00;4990246;28;20053;-78
2021/07/13 06:02:37;;;;;;;4.82;4.30;;;;;;;20.37;72.05;95793.88;4998282;28;20428;-78
2021/07/13 06:05:05;;;;;;;5.22;4.15;;;;;;;20.36;71.45;95800.25;4998324;28;20050;-77
2021/07/13 06:07:32;;;;;;;3.88;3.53;;;;;;;20.38;72.19;95787.53;4998567;28;20061;-78
2021/07/13 06:10:00;;;;;;;4.45;4.05;;;;;;;20.40;71.65;95787.25;4996837;28;20054;-79
2021/07/13 06:12:29;;;;;;;7.65;4.00;;;;;;;20.38;71.11;95793.63;4990161;28;20046;-77
2021/07/13 06:14:56;;;;;;;5.72;3.42;;;;;;;20.38;71.16;95800.78;4980671;28;20047;-78
2021/07/13 06:17:26;;;;;;;5.63;3.35;;;;;;;20.41;71.59;95807.41;4980379;28;20058;-76
2021/07/13 06:19:55;;;;;;;6.50;4.28;;;;;;;20.40;71.09;95814.56;4979708;28;20047;-76
2021/07/13 06:22:22;;;;;;;3.92;3.42;;;;;;;20.41;71.37;95820.66;4979406;28;20050;-76
2021/07/13 06:24:50;;;;;;;3.90;3.40;;;;;;;20.45;71.61;95816.41;4979752;28;20058;-77
2021/07/13 06:27:17;;;;;;;4.90;3.80;;;;;;;20.48;71.44;95814.03;4980323;28;20432;-77
2021/07/13 06:29:46;;;;;;;4.07;3.60;;;;;;;20.50;71.59;95814.56;4980961;28;20047;-77
2021/07/13 06:32:14;;;;;;;3.58;3.25;;;;;;;20.53;70.92;95814.03;4998466;28;20057;-78
2021/07/13 06:34:41;;;;;;;6.25;3.45;;;;;;;20.57;70.88;95823.09;4998213;28;20050;-78
2021/07/13 06:37:09;;;;;;;4.68;3.55;;;;;;;20.62;70.83;95821.47;4998274;28;20137;-75
2021/07/13 06:39:36;;;;;;;4.07;3.78;;;;;;;20.64;69.76;95822.81;4998272;28;20105;-78
2021/07/13 06:42:05;;;;;;;5.88;4.00;;;;;;;20.65;70.24;95826.25;4999406;28;20046;-78
2021/07/13 06:44:32;;;;;;;4.40;3.35;;;;;;;20.66;70.01;95818.06;4997961;28;20057;-78
2021/07/13 06:47:01;;;;;;;4.82;3.88;;;;;;;20.66;70.44;95822.53;4997845;28;20050;-76
2021/07/13 06:49:28;;;;;;;4.15;3.40;;;;;;;20.67;70.47;95824.16;4997332;28;20527;-77
2021/07/13 06:51:56;;;;;;;4.68;3.75;;;;;;;20.69;70.49;95820.16;4998529;28;20054;-78
2021/07/13 06:54:28;;;;;;;3.35;3.08;;;;;;;20.71;70.23;95825.22;5000324;28;20078;-78
2021/07/13 06:56:56;;;;;;;4.15;3.80;;;;;;;20.70;69.49;95818.31;5001924;28;20057;-78
2021/07/13 06:59:23;;;;;;;6.07;3.83;;;;;;;20.64;69.85;95832.59;5001486;28;20125;-77
2021/07/13 07:01:51;;;;;;;4.10;3.80;;;;;;;20.63;69.94;95828.38;5000368;28;20449;-77
2021/07/13 07:04:22;;;;;;;3.38;3.10;;;;;;;20.62;70.10;95824.94;5000870;28;20085;-79
2021/07/13 07:06:49;;;;;;;4.90;4.00;;;;;;;20.64;70.07;95830.78;5000270;28;20054;-77
2021/07/13 07:09:17;;;;;;;3.97;3.42;;;;;;;20.65;70.30;95815.66;4999662;28;20057;-76
2021/07/13 07:11:44;;;;;;;3.90;3.47;;;;;;;20.66;69.96;95827.84;4998145;28;20089;-78
2021/07/13 07:14:12;;;;;;;4.65;4.15;;;;;;;20.65;69.49;95836.88;4998404;28;20054;-78
2021/07/13 07:16:40;;;;;;;4.05;3.75;;;;;;;20.63;69.53;95834.47;4998588;28;20054;-76
2021/07/13 07:19:07;;;;;;;5.95;4.60;;;;;;;20.62;69.87;95834.72;4998063;28;20075;-79
2021/07/13 07:21:36;;;;;;;7.78;4.88;;;;;;;20.62;69.61;95826.78;4997657;28;20053;-78
2021/07/13 07:24:04;;;;;;;5.75;5.22;;;;;;;20.60;69.58;95832.34;4997731;28;20056;-75
2021/07/13 07:26:32;;;;;;;5.32;4.55;;;;;;;20.57;70.33;95836.34;4996614;28;20062;-78
2021/07/13 07:28:59;;;;;;;8.68;4.70;;;;;;;20.58;70.55;95837.91;4995028;28;20146;-77
2021/07/13 07:31:27;;;;;;;5.28;4.70;;;;;;;20.57;70.78;95839.00;4994495;28;20057;-75
2021/07/13 07:33:54;;;;;;;4.60;4.20;;;;;;;20.57;70.29;95846.13;4993010;28;20400;-77
2021/07/13 07:36:25;;;;;;;4.80;4.30;;;;;;;20.52;70.21;95849.53;4978694;28;20524;-76
2021/07/13 07:38:54;;;;;;;8.15;5.70;;;;;;;20.47;70.44;95856.69;4980440;28;20054;-76
2021/07/13 07:41:21;;;;;;;5.10;4.60;;;;;;;20.46;70.68;95849.78;4978808;28;20414;-75
2021/07/13 07:43:50;;;;;;;4.68;4.07;;;;;;;20.48;71.12;95864.34;4991535;28;20054;-76
2021/07/13 07:46:17;;;;;;;7.72;4.18;;;;;;;20.50;71.41;95875.50;4999725;28;20062;-75
2021/07/13 07:48:45;;;;;;;3.95;3.53;;;;;;;20.53;70.87;95885.56;4999346;28;20057;-76
2021/07/13 07:51:12;;;;;;;3.97;3.55;;;;;;;20.54;70.59;95899.63;4998443;28;20393;-74
2021/07/13 07:53:44;;;;;;;3.92;3.55;;;;;;;20.56;71.03;95913.41;4998293;28;20060;-76
2021/07/13 07:56:13;;;;;;;3.78;3.47;;;;;;;20.56;70.86;95913.41;4997840;28;20073;-75
2021/07/13 07:58:41;;;;;;;6.95;3.70;;;;;;;20.54;70.73;95916.31;4998375;28;20137;-77
2021/07/13 08:01:09;;;;;;;3.65;3.33;;;;;;;20.54;70.83;95926.09;4997763;28;20096;-75
2021/07/13 08:03:36;;;;;;;5.32;3.70;;;;;;;20.52;71.09;95917.63;4996943;28;20054;-76
2021/07/13 08:06:04;;;;;;;4.18;3.78;;;;;;;20.48;71.00;95917.34;4996542;28;20050;-76
2021/07/13 08:08:31;;;;;;;3.88;3.58;;;;;;;20.45;71.20;95920.53;4996698;28;20073;-75
2021/07/13 08:10:59;;;;;;;4.80;3.25;;;;;;;20.44;71.62;95912.81;4996941;28;20061;-74
2021/07/13 08:13:27;;;;;;;6.05;4.22;;;;;;;20.43;71.86;95898.00;4997082;28;20050;-75
2021/07/13 08:15:57;;;;;;;4.53;4.10;;;;;;;20.41;71.75;95873.63;4997003;28;20078;-76
2021/07/13 08:18:25;;;;;;;6.07;4.78;;;;;;;20.38;71.87;95888.97;4995977;28;20504;-76
2021/07/13 08:20:52;;;;;;;7.95;4.88;;;;;;;20.36;72.29;95903.56;4995872;28;20050;-78
2021/07/13 08:23:20;;;;;;;6.85;4.57;;;;;;;20.36;72.75;95903.56;4995562;28;20113;-75
2021/07/13 08:25:47;;;;;;;4.65;4.25;;;;;;;20.34;72.87;95874.66;4994607;28;20061;-75
2021/07/13 08:28:14;;;;;;;4.65;3.92;;;;;;;20.35;73.15;95841.81;4994554;28;20050;-76
2021/07/13 08:30:45;;;;;;;4.22;3.67;;;;;;;20.36;73.02;95839.97;4994961;28;20508;-76
2021/07/13 08:33:12;;;;;;;3.50;3.25;;;;;;;20.35;73.32;95841.81;4995095;28;20054;-77
2021/07/13 08:35:40;;;;;;;3.92;3.20;;;;;;;20.39;73.15;95834.16;4995553;28;20054;-77
2021/07/13 08:38:07;;;;;;;4.03;3.72;;;;;;;20.41;73.39;95831.25;4994095;28;20050;-77
2021/07/13 08:40:35;;;;;;;6.47;3.15;;;;;;;20.43;73.41;95829.13;4991224;28;20054;-78
2021/07/13 08:43:03;;;;;;;4.10;3.75;;;;;;;20.45;73.62;95827.03;4998621;23;20058;-80
2021/07/13 08:45:31;;;;;;;4.10;3.80;;;;;;;20.46;73.25;95826.72;4993256;28;20061;-81
2021/07/13 08:48:01;;;;;;;4.97;3.55;;;;;;;20.49;73.57;95830.72;4996895;28;20050;-81
2021/07/13 08:50:28;;;;;;;2.90;2.58;;;;;;;20.51;73.62;95842.66;4993596;28;20058;-82
2021/07/13 08:52:59;;;;;;;4.55;3.58;;;;;;;20.54;73.24;95831.53;4966442;28;20047;-82
2021/07/13 08:55:27;;;;;;;5.18;4.25;;;;;;;20.57;73.31;95836.34;4957630;29;20054;-82
2021/07/13 08:57:55;;;;;;;6.82;5.80;;;;;;;20.61;73.10;95839.22;4956237;28;20055;-82
2021/07/13 09:00:23;;;;;;;4.75;4.20;;;;;;;20.63;72.56;95850.38;4973097;28;20051;-81
2021/07/13 09:03:18;;;;;;;4.38;3.97;;;;;;;20.64;72.79;95848.50;4992292;28;20056;-83
2021/07/13 09:05:48;;;;;;;3.85;3.47;;;;;;;20.66;72.93;95854.34;4975843;28;20069;-81
2021/07/13 09:08:19;;;;;;;4.63;3.63;;;;;;;20.66;72.88;95862.28;4967087;29;20051;-82
2021/07/13 09:11:05;;;;;;;6.90;5.32;;;;;;;20.68;72.94;95862.81;4965039;29;20051;-80
2021/07/13 09:13:36;;;;;;;5.25;4.70;;;;;;;20.69;72.52;95861.78;4977405;28;20051;-80
2021/07/13 09:16:05;;;;;;;4.38;3.97;;;;;;;20.69;72.90;95872.38;4978985;28;20058;-81
2021/07/13 09:18:36;;;;;;;4.45;3.75;;;;;;;20.73;72.85;95876.09;4993963;28;20106;-82
2021/07/13 09:21:12;;;;;;;4.20;3.00;;;;;;;20.77;72.64;95877.13;4978161;28;20481;-81
2021/07/13 09:24:02;;;;;;;4.22;3.50;;;;;;;20.80;72.38;95887.22;4980055;28;20058;-82
2021/07/13 09:26:38;;;;;;;3.92;3.63;;;;;;;20.81;72.45;95883.50;4977198;28;20063;-82
2021/07/13 09:29:07;;;;;;;2.97;2.78;;;;;;;20.81;72.47;95875.56;4968647;29;20718;-82
2021/07/13 09:31:35;;;;;;;3.85;3.55;;;;;;;20.83;72.19;95868.13;4971696;28;20066;-82
2021/07/13 09:34:18;;;;;;;4.18;3.88;;;;;;;20.87;72.15;95871.06;4963306;29;20425;-82
2021/07/13 09:36:50;;;;;;;3.50;3.17;;;;;;;20.89;72.67;95879.53;4962578;29;20059;-81
2021/07/13 09:39:23;;;;;;;3.40;3.00;;;;;;;20.92;72.69;95871.84;4957552;29;20051;-81
2021/07/13 09:41:55;;;;;;;5.57;2.90;;;;;;;20.95;72.57;95889.88;4957141;28;20054;-81
2021/07/13 09:44:23;;;;;;;;;;;;;;;20.98;72.45;95892.00;4957880;29;20051;-81
2021/07/13 09:46:51;;;;;;;2.53;2.20;;;;;;;21.02;72.27;95896.78;4956429;29;19926;-81
2021/07/13 09:49:23;;;;;;;2.42;1.90;;;;;;;21.04;72.16;95902.63;4958279;29;20081;-82
2021/07/13 09:51:56;;;;;;;2.05;1.95;;;;;;;21.03;70.70;95885.91;4965698;28;20066;-80
2021/07/13 09:54:33;;;;;;;2.28;1.67;;;;;;;21.02;70.98;95888.84;4951907;29;20059;-72
2021/07/13 09:57:01;;;;;;;1.90;1.80;;;;;;;20.99;70.62;95885.66;4956177;29;20051;-71
2021/07/13 09:59:29;;;;;;;1.80;1.70;;;;;;;20.96;70.62;95896.75;4955753;29;20058;-71
2021/07/13 10:01:57;;;;;;;3.55;1.98;;;;;;;20.97;70.82;95897.59;4955684;28;20137;-71
2021/07/13 10:04:27;;;;;;;1.70;1.60;;;;;;;21.01;70.79;95892.53;4954688;29;20054;-72
2021/07/13 10:06:56;;;;;;;3.65;1.65;;;;;;;21.05;70.68;95877.69;4955527;29;20094;-72
2021/07/13 10:09:29;;;;;;;1.92;1.83;;;;;;;21.08;70.46;95877.13;4956243;28;20047;-71
2021/07/13 10:11:57;;;;;;;2.75;1.70;;;;;;;21.09;70.79;95884.03;4956045;28;20047;-71
2021/07/13 10:14:26;;;;;;;2.15;1.92;;;;;;;21.07;70.64;95889.59;4955673;29;20055;-72
2021/07/13 10:16:53;;;;;;;2.30;1.52;;;;;;;21.08;71.15;95898.34;4955786;29;20051;-72
2021/07/13 10:19:22;;;;;;;2.85;1.48;;;;;;;21.11;71.05;95895.19;4955677;29;20057;-71
2021/07/13 10:21:51;;;;;;;1.77;1.67;;;;;;;21.14;70.72;95886.69;4955766;28;20059;-72
2021/07/13 10:24:23;;;;;;;3.08;1.60;;;;;;;21.15;70.15;95896.25;4955706;29;20047;-71
2021/07/13 10:26:52;;;;;;;6.28;1.75;;;;;;;21.14;70.10;95881.38;4955634;29;20051;-71
2021/07/13 10:29:51;;;;;;;1.63;1.48;;;;;;;21.16;70.16;95871.31;4955552;29;20090;-71
2021/07/13 10:32:32;;;;;;;1.50;1.40;;;;;;;21.17;70.31;95881.66;4914668;29;20541;-71
2021/07/13 10:35:04;;;;;;;2.37;1.40;;;;;;;21.19;70.16;95884.06;4949634;29;20509;-71
2021/07/13 10:37:35;;;;;;;1.95;1.85;;;;;;;21.22;70.31;95882.72;4954972;29;20354;-71
2021/07/13 10:40:06;;;;;;;2.20;1.80;;;;;;;21.23;70.09;95881.66;4955173;29;20196;-71
2021/07/13 10:42:56;;;;;;;1.75;1.65;;;;;;;21.24;70.28;95886.69;4959047;28;20055;-82
2021/07/13 10:45:27;;;;;;;1.75;1.65;;;;;;;21.26;69.83;95912.97;4960439;29;20059;-81
2021/07/13 10:47:57;;;;;;;2.03;1.88;;;;;;;21.26;69.67;95924.34;4960984;29;20079;-82
2021/07/13 10:50:40;;;;;;;2.22;2.10;;;;;;;21.27;69.54;95946.38;4972918;28;20112;-81
2021/07/13 10:53:14;;;;;;;;;;;;;;;21.25;69.55;95962.53;4984111;28;20043;-81
2021/07/13 10:55:47;;;;;;;5.25;2.60;;;;;;;21.20;69.58;95991.72;4956601;28;19949;-81
2021/07/13 10:59:00;;;;;;;3.35;2.42;;;;;;;21.13;69.75;96009.75;4943327;29;20052;-81
2021/07/13 11:01:30;;;;;;;3.70;2.40;;;;;;;21.03;70.29;95996.47;4913175;29;20062;-81
2021/07/13 11:04:03;;;;;;;3.53;2.20;;;;;;;20.95;70.46;96001.22;4942085;29;20063;-81
2021/07/13 11:06:59;;;;;;;3.38;2.95;;;;;;;20.89;71.09;96018.19;4948756;29;20051;-81
2021/07/13 11:09:34;;;;;;;2.08;1.25;;;;;;;20.76;69.69;96021.34;4943938;29;20065;-80
2021/07/13 11:12:05;;;;;;;1.70;1.10;;;;;;;20.57;69.18;96015.69;4941885;29;20070;-82
2021/07/13 11:14:33;;;;;;;3.10;1.50;;;;;;;20.35;69.14;95990.13;4941660;29;20052;-81
2021/07/13 11:17:00;;;;;;;0.75;0.75;;;;;;;20.21;69.46;95996.19;4944806;29;20052;-82
2021/07/13 11:19:32;;;;;;;2.80;0.73;;;;;;;20.11;68.83;96016.25;4945329;29;20062;-81
2021/07/13 11:22:00;;;;;;;2.72;1.63;;;;;;;19.99;68.60;96026.25;4940890;29;20047;-81
2021/07/13 11:24:27;;;;;;;2.00;1.60;;;;;;;19.89;69.02;96039.41;4939513;29;20106;-81
2021/07/13 11:26:58;;;;;;;3.17;1.80;;;;;;;19.79;68.74;96057.84;4938680;29;20058;-80
2021/07/13 11:29:28;;;;;;;10.68;5.45;;;;;;;19.67;69.24;96065.94;4936759;29;20051;-81
2021/07/13 11:31:57;;;;;;;7.18;3.50;;;;;;;19.65;69.57;96062.75;4956262;28;20058;-80
2021/07/13 11:34:28;;;;;;;5.25;2.47;;;;;;;19.64;69.59;96067.25;4954798;29;20402;-80
2021/07/13 11:36:56;;;;;;;2.58;1.15;;;;;;;19.57;69.08;96071.97;4955277;29;20059;-80
2021/07/13 11:39:25;;;;;;;3.03;1.15;;;;;;;19.51;69.88;96067.66;4955941;29;20058;-80
2021/07/13 11:41:55;;;;;;;0.68;0.50;;;;;;;19.49;69.76;96083.00;4961381;28;20406;-81
2021/07/13 11:44:25;;;;;;;0.70;0.17;;;;;;;19.47;69.88;96091.16;4960501;29;20167;-82
2021/07/13 11:46:54;;;;;;;0.40;0.10;;;;;;;19.43;68.88;96078.69;4958390;29;20531;-81